sensor_id;sensor_type;location;lat;lon;timestamp;pressure;altitude;pressure_sealevel;temperature;humidity
37238;BME280;23129;49.662;8.448;2023-01-28T00:02:22;101581.94;;;3.49;100.00
37238;BME280;23129;49.662;8.448;2023-01-28T00:04:51;101586.31;;;3.50;100.00
37238;BME280;23129;49.662;8.448;2023-01-28T00:07:19;101575.88;;;3.49;100.00
37238;BME280;23129;49.662;8.448;2023-01-28T00:09:49;101580.22;;;3.48;100.00
37238;BME280;23129;49.662;8.448;2023-01-28T00:12:17;101577.63;;;3.48;100.00
37238;BME280;23129;49.662;8.448;2023-01-28T00:14:46;101578.47;;;3.47;100.00
37238;BME280;23129;49.662;8.448;2023-01-28T00:17:14;101579.34;;;3.48;100.00
37238;BME280;23129;49.662;8.448;2023-01-28T00:19:44;101578.47;;;3.47;100.00
37238;BME280;23129;49.662;8.448;2023-01-28T00:22:12;101588.84;;;3.47;100.00
37238;BME280;23129;49.662;8.448;2023-01-28T00:24:41;101576.69;;;3.46;100.00
37238;BME280;23129;49.662;8.448;2023-01-28T00:27:09;101574.97;;;3.45;100.00
37238;BME280;23129;49.662;8.448;2023-01-28T00:29:38;101575.81;;;3.46;100.00
37238;BME280;23129;49.662;8.448;2023-01-28T00:32:07;101569.78;;;3.45;100.00
37238;BME280;23129;49.662;8.448;2023-01-28T00:34:36;101567.19;;;3.45;100.00
37238;BME280;23129;49.662;8.448;2023-01-28T00:37:08;101571.50;;;3.45;100.00
37238;BME280;23129;49.662;8.448;2023-01-28T00:39:36;101571.44;;;3.43;100.00
37238;BME280;23129;49.662;8.448;2023-01-28T00:42:05;101567.06;;;3.40;100.00
37238;BME280;23129;49.662;8.448;2023-01-28T00:44:34;101561.03;;;3.40;100.00
37238;BME280;23129;49.662;8.448;2023-01-28T00:47:02;101559.28;;;3.39;100.00
37238;BME280;23129;49.662;8.448;2023-01-28T00:49:31;101560.97;;;3.37;100.00
37238;BME280;23129;49.662;8.448;2023-01-28T00:52:01;101561.81;;;3.36;100.00
37238;BME280;23129;49.662;8.448;2023-01-28T00:54:31;101560.97;;;3.37;100.00
37238;BME280;23129;49.662;8.448;2023-01-28T00:56:59;101560.09;;;3.36;100.00
37238;BME280;23129;49.662;8.448;2023-01-28T00:59:28;101559.22;;;3.36;100.00
37238;BME280;23129;49.662;8.448;2023-01-28T01:01:57;101564.41;;;3.37;100.00
37238;BME280;23129;49.662;8.448;2023-01-28T01:04:40;101564.41;;;3.36;100.00
37238;BME280;23129;49.662;8.448;2023-01-28T01:07:22;101568.72;;;3.35;100.00
37238;BME280;23129;49.662;8.448;2023-01-28T01:10:00;101565.22;;;3.33;100.00
37238;BME280;23129;49.662;8.448;2023-01-28T01:12:29;101567.75;;;3.32;100.00
37238;BME280;23129;49.662;8.448;2023-01-28T01:14:57;101576.44;;;3.32;100.00
37238;BME280;23129;49.662;8.448;2023-01-28T01:17:29;101572.09;;;3.31;100.00
37238;BME280;23129;49.662;8.448;2023-01-28T01:19:57;101579.00;;;3.31;100.00
37238;BME280;23129;49.662;8.448;2023-01-28T01:22:26;101575.53;;;3.30;100.00
37238;BME280;23129;49.662;8.448;2023-01-28T01:24:55;101569.41;;;3.27;100.00
37238;BME280;23129;49.662;8.448;2023-01-28T01:27:24;101566.78;;;3.25;100.00
37238;BME280;23129;49.662;8.448;2023-01-28T01:29:53;101570.25;;;3.26;100.00
37238;BME280;23129;49.662;8.448;2023-01-28T01:32:21;101578.88;;;3.25;100.00
37238;BME280;23129;49.662;8.448;2023-01-28T01:34:50;101581.47;;;3.25;100.00
37238;BME280;23129;49.662;8.448;2023-01-28T01:37:18;101575.41;;;3.24;100.00
37238;BME280;23129;49.662;8.448;2023-01-28T01:39:47;101582.31;;;3.24;100.00
37238;BME280;23129;49.662;8.448;2023-01-28T01:42:15;101572.78;;;3.23;100.00
37238;BME280;23129;49.662;8.448;2023-01-28T01:45:07;101577.88;;;3.19;100.00
37238;BME280;23129;49.662;8.448;2023-01-28T01:47:44;101577.03;;;3.19;100.00
37238;BME280;23129;49.662;8.448;2023-01-28T01:50:21;101585.66;;;3.18;100.00
37238;BME280;23129;49.662;8.448;2023-01-28T01:52:54;101586.47;;;3.17;100.00
37238;BME280;23129;49.662;8.448;2023-01-28T01:55:26;101582.13;;;3.16;100.00
37238;BME280;23129;49.662;8.448;2023-01-28T01:58:02;101583.00;;;3.16;100.00
37238;BME280;23129;49.662;8.448;2023-01-28T02:00:33;101588.19;;;3.16;100.00
37238;BME280;23129;49.662;8.448;2023-01-28T02:03:02;101593.38;;;3.16;100.00
37238;BME280;23129;49.662;8.448;2023-01-28T02:05:30;101595.16;;;3.17;100.00
37238;BME280;23129;49.662;8.448;2023-01-28T02:07:59;101583.88;;;3.17;100.00
37238;BME280;23129;49.662;8.448;2023-01-28T02:10:44;101593.38;;;3.16;100.00
37238;BME280;23129;49.662;8.448;2023-01-28T02:13:14;101599.41;;;3.15;100.00
37238;BME280;23129;49.662;8.448;2023-01-28T02:15:45;101595.03;;;3.13;100.00
37238;BME280;23129;49.662;8.448;2023-01-28T02:18:15;101591.56;;;3.12;100.00
37238;BME280;23129;49.662;8.448;2023-01-28T02:21:19;101600.16;;;3.08;100.00
37238;BME280;23129;49.662;8.448;2023-01-28T02:24:09;101607.06;;;3.09;100.00
37238;BME280;23129;49.662;8.448;2023-01-28T02:29:55;101611.31;;;3.06;100.00
37238;BME280;23129;49.662;8.448;2023-01-28T02:32:32;101607.84;;;3.05;100.00
37238;BME280;23129;49.662;8.448;2023-01-28T02:35:11;101598.31;;;3.04;100.00
37238;BME280;23129;49.662;8.448;2023-01-28T02:37:46;101603.50;;;3.04;100.00
37238;BME280;23129;49.662;8.448;2023-01-28T02:40:23;101600.00;;;3.02;100.00
37238;BME280;23129;49.662;8.448;2023-01-28T02:42:56;101598.25;;;3.01;100.00
37238;BME280;23129;49.662;8.448;2023-01-28T02:45:31;101603.44;;;3.01;100.00
37238;BME280;23129;49.662;8.448;2023-01-28T02:48:14;101593.91;;;3.00;100.00
37238;BME280;23129;49.662;8.448;2023-01-28T02:50:50;101600.81;;;3.00;100.00
37238;BME280;23129;49.662;8.448;2023-01-28T02:53:27;101603.34;;;2.98;100.00
37238;BME280;23129;49.662;8.448;2023-01-28T02:56:19;101600.75;;;2.96;100.00
37238;BME280;23129;49.662;8.448;2023-01-28T02:59:02;101604.16;;;2.95;100.00
37238;BME280;23129;49.662;8.448;2023-01-28T03:01:56;101607.59;;;2.94;100.00
37238;BME280;23129;49.662;8.448;2023-01-28T03:04:30;101606.75;;;2.94;100.00
37238;BME280;23129;49.662;8.448;2023-01-28T03:07:06;101609.31;;;2.94;100.00
37238;BME280;23129;49.662;8.448;2023-01-28T03:09:37;101607.53;;;2.91;100.00
37238;BME280;23129;49.662;8.448;2023-01-28T03:12:09;101610.06;;;2.90;100.00
37238;BME280;23129;49.662;8.448;2023-01-28T03:14:59;101610.06;;;2.88;100.00
37238;BME280;23129;49.662;8.448;2023-01-28T03:17:52;101610.06;;;2.88;100.00
37238;BME280;23129;49.662;8.448;2023-01-28T03:20:53;101603.09;;;2.86;100.00
37238;BME280;23129;49.662;8.448;2023-01-28T03:23:53;101610.88;;;2.86;100.00
37238;BME280;23129;49.662;8.448;2023-01-28T03:26:48;101608.19;;;2.83;100.00
37238;BME280;23129;49.662;8.448;2023-01-28T03:29:41;101609.88;;;2.81;100.00
37238;BME280;23129;49.662;8.448;2023-01-28T03:32:30;101612.47;;;2.81;100.00
37238;BME280;23129;49.662;8.448;2023-01-28T03:35:21;101627.13;;;2.79;100.00
37238;BME280;23129;49.662;8.448;2023-01-28T03:38:09;101618.50;;;2.80;100.00
37238;BME280;23129;49.662;8.448;2023-01-28T03:40:51;101617.66;;;2.81;100.00
37238;BME280;23129;49.662;8.448;2023-01-28T03:43:20;101629.72;;;2.80;100.00
37238;BME280;23129;49.662;8.448;2023-01-28T03:45:50;101634.91;;;2.80;100.00
37238;BME280;23129;49.662;8.448;2023-01-28T03:48:18;101632.31;;;2.80;100.00
37238;BME280;23129;49.662;8.448;2023-01-28T03:50:48;101631.47;;;2.81;100.00
37238;BME280;23129;49.662;8.448;2023-01-28T03:53:18;101640.97;;;2.81;100.00
37238;BME280;23129;49.662;8.448;2023-01-28T03:55:51;101637.56;;;2.82;100.00
37238;BME280;23129;49.662;8.448;2023-01-28T03:58:20;101640.97;;;2.81;100.00
37238;BME280;23129;49.662;8.448;2023-01-28T04:00:50;101640.09;;;2.80;100.00
37238;BME280;23129;49.662;8.448;2023-01-28T04:03:20;101640.97;;;2.81;100.00
37238;BME280;23129;49.662;8.448;2023-01-28T04:06:06;101644.41;;;2.80;100.00
37238;BME280;23129;49.662;8.448;2023-01-28T04:08:54;101647.84;;;2.79;100.00
37238;BME280;23129;49.662;8.448;2023-01-28T04:11:26;101643.50;;;2.78;100.00
37238;BME280;23129;49.662;8.448;2023-01-28T04:13:55;101647.84;;;2.79;100.00
37238;BME280;23129;49.662;8.448;2023-01-28T04:16:26;101651.25;;;2.78;100.00
37238;BME280;23129;49.662;8.448;2023-01-28T04:18:55;101643.47;;;2.76;100.00
37238;BME280;23129;49.662;8.448;2023-01-28T04:21:27;101647.78;;;2.76;100.00
37238;BME280;23129;49.662;8.448;2023-01-28T04:23:55;101645.13;;;2.74;100.00
37238;BME280;23129;49.662;8.448;2023-01-28T04:26:24;101641.69;;;2.73;100.00
37238;BME280;23129;49.662;8.448;2023-01-28T04:28:52;101645.06;;;2.71;100.00
37238;BME280;23129;49.662;8.448;2023-01-28T04:31:21;101642.47;;;2.69;100.00
37238;BME280;23129;49.662;8.448;2023-01-28T04:34:09;101647.63;;;2.69;100.00
37238;BME280;23129;49.662;8.448;2023-01-28T04:36:54;101644.13;;;2.67;100.00
37238;BME280;23129;49.662;8.448;2023-01-28T04:39:22;101650.16;;;2.66;100.00
37238;BME280;23129;49.662;8.448;2023-01-28T04:42:10;101646.66;;;2.66;100.00
37238;BME280;23129;49.662;8.448;2023-01-28T04:44:58;101666.50;;;2.65;100.00
37238;BME280;23129;49.662;8.448;2023-01-28T04:47:53;101654.41;;;2.64;100.00
37238;BME280;23129;49.662;8.448;2023-01-28T04:50:57;101659.59;;;2.64;100.00
37238;BME280;23129;49.662;8.448;2023-01-28T04:53:42;101655.28;;;2.65;100.00
37238;BME280;23129;49.662;8.448;2023-01-28T04:56:31;101655.25;;;2.63;100.00
37238;BME280;23129;49.662;8.448;2023-01-28T04:59:00;101659.53;;;2.61;100.00
37238;BME280;23129;49.662;8.448;2023-01-28T05:01:30;101656.06;;;2.62;100.00
37238;BME280;23129;49.662;8.448;2023-01-28T05:03:59;101657.84;;;2.63;100.00
37238;BME280;23129;49.662;8.448;2023-01-28T05:06:33;101669.88;;;2.61;100.00
37238;BME280;23129;49.662;8.448;2023-01-28T05:09:32;101663.78;;;2.59;100.00
37238;BME280;23129;49.662;8.448;2023-01-28T05:12:00;101664.66;;;2.60;100.00
37238;BME280;23129;49.662;8.448;2023-01-28T05:14:31;101663.81;;;2.61;100.00
37238;BME280;23129;49.662;8.448;2023-01-28T05:17:05;101669.81;;;2.58;100.00
37238;BME280;23129;49.662;8.448;2023-01-28T05:19:34;101674.97;;;2.58;100.00
37238;BME280;23129;49.662;8.448;2023-01-28T05:22:06;101669.81;;;2.58;100.00
37238;BME280;23129;49.662;8.448;2023-01-28T05:24:41;101668.88;;;2.56;100.00
37238;BME280;23129;49.662;8.448;2023-01-28T05:27:10;101676.66;;;2.56;100.00
37238;BME280;23129;49.662;8.448;2023-01-28T05:29:39;101678.38;;;2.57;100.00
37238;BME280;23129;49.662;8.448;2023-01-28T05:32:08;101683.56;;;2.57;100.00
37238;BME280;23129;49.662;8.448;2023-01-28T05:34:36;101681.91;;;2.59;100.00
37238;BME280;23129;49.662;8.448;2023-01-28T05:37:11;101678.47;;;2.60;100.00
37238;BME280;23129;49.662;8.448;2023-01-28T05:39:39;101683.66;;;2.60;100.00
37238;BME280;23129;49.662;8.448;2023-01-28T05:42:10;101688.00;;;2.61;100.00
37238;BME280;23129;49.662;8.448;2023-01-28T05:44:44;101697.53;;;2.62;100.00
37238;BME280;23129;49.662;8.448;2023-01-28T05:47:22;101702.69;;;2.62;100.00
37238;BME280;23129;49.662;8.448;2023-01-28T05:49:56;101703.56;;;2.63;100.00
37238;BME280;23129;49.662;8.448;2023-01-28T05:52:43;101700.97;;;2.61;100.00
37238;BME280;23129;49.662;8.448;2023-01-28T05:55:22;101709.59;;;2.62;100.00
37238;BME280;23129;49.662;8.448;2023-01-28T05:57:51;101710.44;;;2.61;100.00
37238;BME280;23129;49.662;8.448;2023-01-28T06:00:22;101704.41;;;2.62;100.00
37238;BME280;23129;49.662;8.448;2023-01-28T06:02:51;101713.06;;;2.62;100.00
37238;BME280;23129;49.662;8.448;2023-01-28T06:05:20;101718.25;;;2.62;100.00
37238;BME280;23129;49.662;8.448;2023-01-28T06:07:50;101720.00;;;2.63;100.00
37238;BME280;23129;49.662;8.448;2023-01-28T06:10:18;101726.88;;;2.63;100.00
37238;BME280;23129;49.662;8.448;2023-01-28T06:12:47;101732.13;;;2.64;100.00
37238;BME280;23129;49.662;8.448;2023-01-28T06:15:34;101727.78;;;2.63;100.00
37238;BME280;23129;49.662;8.448;2023-01-28T06:18:13;101731.19;;;2.62;100.00
37238;BME280;23129;49.662;8.448;2023-01-28T06:20:41;101728.59;;;2.62;100.00
37238;BME280;23129;49.662;8.448;2023-01-28T06:23:10;101732.91;;;2.62;100.00
37238;BME280;23129;49.662;8.448;2023-01-28T06:25:38;101735.56;;;2.63;100.00
37238;BME280;23129;49.662;8.448;2023-01-28T06:28:10;101738.97;;;2.62;100.00
37238;BME280;23129;49.662;8.448;2023-01-28T06:30:40;101742.41;;;2.61;100.00
37238;BME280;23129;49.662;8.448;2023-01-28T06:33:08;101738.03;;;2.60;100.00
37238;BME280;23129;49.662;8.448;2023-01-28T06:35:37;101750.97;;;2.60;100.00
37238;BME280;23129;49.662;8.448;2023-01-28T06:38:06;101748.41;;;2.60;100.00
37238;BME280;23129;49.662;8.448;2023-01-28T06:40:34;101753.56;;;2.59;100.00
37238;BME280;23129;49.662;8.448;2023-01-28T06:43:03;101757.00;;;2.59;100.00
37238;BME280;23129;49.662;8.448;2023-01-28T06:45:32;101762.19;;;2.59;100.00
37238;BME280;23129;49.662;8.448;2023-01-28T06:48:02;101763.03;;;2.58;100.00
37238;BME280;23129;49.662;8.448;2023-01-28T06:50:32;101763.03;;;2.58;100.00
37238;BME280;23129;49.662;8.448;2023-01-28T06:53:00;101763.94;;;2.60;100.00
37238;BME280;23129;49.662;8.448;2023-01-28T06:55:29;101766.53;;;2.60;100.00
37238;BME280;23129;49.662;8.448;2023-01-28T06:57:57;101765.72;;;2.61;100.00
37238;BME280;23129;49.662;8.448;2023-01-28T07:00:26;101766.53;;;2.60;100.00
37238;BME280;23129;49.662;8.448;2023-01-28T07:02:55;101773.47;;;2.61;100.00
37238;BME280;23129;49.662;8.448;2023-01-28T07:05:25;101772.59;;;2.61;100.00
37238;BME280;23129;49.662;8.448;2023-01-28T07:07:54;101776.06;;;2.61;100.00
37238;BME280;23129;49.662;8.448;2023-01-28T07:10:22;101776.88;;;2.60;100.00
37238;BME280;23129;49.662;8.448;2023-01-28T07:12:51;101773.47;;;2.61;100.00
37238;BME280;23129;49.662;8.448;2023-01-28T07:15:19;101783.84;;;2.61;100.00
37238;BME280;23129;49.662;8.448;2023-01-28T07:17:48;101778.66;;;2.61;100.00
37238;BME280;23129;49.662;8.448;2023-01-28T07:20:17;101783.84;;;2.61;100.00
37238;BME280;23129;49.662;8.448;2023-01-28T07:22:46;101784.75;;;2.63;100.00
37238;BME280;23129;49.662;8.448;2023-01-28T07:25:15;101782.19;;;2.63;100.00
37238;BME280;23129;49.662;8.448;2023-01-28T07:27:48;101783.91;;;2.64;100.00
37238;BME280;23129;49.662;8.448;2023-01-28T07:30:18;101777.03;;;2.65;100.00
37238;BME280;23129;49.662;8.448;2023-01-28T07:32:52;101775.31;;;2.65;100.00
37238;BME280;23129;49.662;8.448;2023-01-28T07:35:21;101772.78;;;2.68;100.00
37238;BME280;23129;49.662;8.448;2023-01-28T07:37:52;101777.97;;;2.68;100.00
37238;BME280;23129;49.662;8.448;2023-01-28T07:40:20;101780.63;;;2.71;100.00
37238;BME280;23129;49.662;8.448;2023-01-28T07:42:49;101784.16;;;2.73;100.00
37238;BME280;23129;49.662;8.448;2023-01-28T07:45:22;101785.91;;;2.74;100.00
37238;BME280;23129;49.662;8.448;2023-01-28T07:47:55;101790.25;;;2.76;100.00
37238;BME280;23129;49.662;8.448;2023-01-28T07:50:24;101789.41;;;2.77;100.00
37238;BME280;23129;49.662;8.448;2023-01-28T07:52:55;101798.94;;;2.78;100.00
37238;BME280;23129;49.662;8.448;2023-01-28T07:55:24;101796.41;;;2.81;100.00
37238;BME280;23129;49.662;8.448;2023-01-28T07:57:55;101797.41;;;2.84;100.00
37238;BME280;23129;49.662;8.448;2023-01-28T08:00:26;101802.59;;;2.86;100.00
37238;BME280;23129;49.662;8.448;2023-01-28T08:02:56;101804.44;;;2.90;100.00
37238;BME280;23129;49.662;8.448;2023-01-28T08:05:25;101801.03;;;2.92;100.00
37238;BME280;23129;49.662;8.448;2023-01-28T08:07:58;101802.84;;;2.95;100.00
37238;BME280;23129;49.662;8.448;2023-01-28T08:10:26;101800.31;;;2.98;100.00
37238;BME280;23129;49.662;8.448;2023-01-28T08:12:57;101807.25;;;2.99;100.00
37238;BME280;23129;49.662;8.448;2023-01-28T08:15:26;101814.19;;;3.00;100.00
37238;BME280;23129;49.662;8.448;2023-01-28T08:17:55;101809.09;;;3.03;100.00
37238;BME280;23129;49.662;8.448;2023-01-28T08:20:25;101817.81;;;3.07;100.00
37238;BME280;23129;49.662;8.448;2023-01-28T08:23:06;101822.22;;;3.09;100.00
37238;BME280;23129;49.662;8.448;2023-01-28T08:25:35;101822.28;;;3.12;100.00
37238;BME280;23129;49.662;8.448;2023-01-28T08:28:04;101818.03;;;3.14;100.00
37238;BME280;23129;49.662;8.448;2023-01-28T08:30:34;101812.00;;;3.17;100.00
37238;BME280;23129;49.662;8.448;2023-01-28T08:33:05;101825.09;;;3.22;100.00
37238;BME280;23129;49.662;8.448;2023-01-28T08:35:34;101821.66;;;3.23;100.00
37238;BME280;23129;49.662;8.448;2023-01-28T08:38:05;101829.50;;;3.24;100.00
37238;BME280;23129;49.662;8.448;2023-01-28T08:40:34;101820.91;;;3.27;100.00
37238;BME280;23129;49.662;8.448;2023-01-28T08:43:03;101817.53;;;3.31;100.00
37238;BME280;23129;49.662;8.448;2023-01-28T08:45:32;101821.94;;;3.35;100.00
37238;BME280;23129;49.662;8.448;2023-01-28T08:48:05;101817.75;;;3.38;100.00
37238;BME280;23129;49.662;8.448;2023-01-28T08:50:37;101811.72;;;3.39;100.00
37238;BME280;23129;49.662;8.448;2023-01-28T08:53:10;101826.47;;;3.42;100.00
37238;BME280;23129;49.662;8.448;2023-01-28T08:55:38;101829.06;;;3.42;100.00
37238;BME280;23129;49.662;8.448;2023-01-28T08:58:11;101822.19;;;3.44;100.00
37238;BME280;23129;49.662;8.448;2023-01-28T09:00:41;101826.56;;;3.47;100.00
37238;BME280;23129;49.662;8.448;2023-01-28T09:03:09;101821.38;;;3.47;100.00
37238;BME280;23129;49.662;8.448;2023-01-28T09:05:38;101820.56;;;3.49;100.00
37238;BME280;23129;49.662;8.448;2023-01-28T09:08:11;101818.91;;;3.51;100.00
37238;BME280;23129;49.662;8.448;2023-01-28T09:10:40;101815.53;;;3.55;100.00
37238;BME280;23129;49.662;8.448;2023-01-28T09:13:10;101817.38;;;3.59;100.00
37238;BME280;23129;49.662;8.448;2023-01-28T09:15:40;101823.56;;;3.66;100.00
37238;BME280;23129;49.662;8.448;2023-01-28T09:18:09;101823.75;;;3.75;100.00
37238;BME280;23129;49.662;8.448;2023-01-28T09:20:37;101827.41;;;3.83;100.00
37238;BME280;23129;49.662;8.448;2023-01-28T09:23:08;101835.28;;;3.88;100.00
37238;BME280;23129;49.662;8.448;2023-01-28T09:25:37;101836.28;;;3.95;100.00
37238;BME280;23129;49.662;8.448;2023-01-28T09:28:05;101841.63;;;4.01;100.00
37238;BME280;23129;49.662;8.448;2023-01-28T09:30:34;101843.41;;;4.03;100.00
37238;BME280;23129;49.662;8.448;2023-01-28T09:33:05;101843.47;;;4.06;100.00
37238;BME280;23129;49.662;8.448;2023-01-28T09:35:34;101849.56;;;4.08;100.00
37238;BME280;23129;49.662;8.448;2023-01-28T09:38:02;101853.97;;;4.12;100.00
37238;BME280;23129;49.662;8.448;2023-01-28T09:40:36;101848.03;;;4.17;100.00
37238;BME280;23129;49.662;8.448;2023-01-28T09:43:43;101849.84;;;4.21;100.00
37238;BME280;23129;49.662;8.448;2023-01-28T09:46:15;101847.22;;;4.19;100.00
37238;BME280;23129;49.662;8.448;2023-01-28T09:48:47;101848.84;;;4.16;100.00
37238;BME280;23129;49.662;8.448;2023-01-28T09:51:32;101849.66;;;4.11;100.00
37238;BME280;23129;49.662;8.448;2023-01-28T09:54:09;101853.91;;;4.08;100.00
37238;BME280;23129;49.662;8.448;2023-01-28T09:56:42;101854.78;;;4.08;100.00
37238;BME280;23129;49.662;8.448;2023-01-28T09:59:18;101858.22;;;4.07;100.00
37238;BME280;23129;49.662;8.448;2023-01-28T10:01:53;101856.50;;;4.09;100.00
37238;BME280;23129;49.662;8.448;2023-01-28T10:04:43;101856.50;;;4.09;100.00
37238;BME280;23129;49.662;8.448;2023-01-28T10:07:33;101860.88;;;4.10;100.00
37238;BME280;23129;49.662;8.448;2023-01-28T10:10:10;101860.03;;;4.11;100.00
37238;BME280;23129;49.662;8.448;2023-01-28T10:13:06;101867.03;;;4.16;100.00
37238;BME280;23129;49.662;8.448;2023-01-28T10:16:08;101870.63;;;4.21;100.00
37238;BME280;23129;49.662;8.448;2023-01-28T10:18:45;101871.53;;;4.23;100.00
37238;BME280;23129;49.662;8.448;2023-01-28T10:21:21;101862.06;;;4.25;100.00
37238;BME280;23129;49.662;8.448;2023-01-28T10:24:00;101867.22;;;4.23;100.00
37238;BME280;23129;49.662;8.448;2023-01-28T10:26:33;101866.28;;;4.21;100.00
37238;BME280;23129;49.662;8.448;2023-01-28T10:29:12;101871.47;;;4.21;100.00
37238;BME280;23129;49.662;8.448;2023-01-28T10:31:50;101874.94;;;4.22;100.00
37238;BME280;23129;49.662;8.448;2023-01-28T10:34:19;101874.94;;;4.22;100.00
37238;BME280;23129;49.662;8.448;2023-01-28T10:36:49;101874.06;;;4.20;100.00
37238;BME280;23129;49.662;8.448;2023-01-28T10:39:21;101875.75;;;4.18;100.00
37238;BME280;23129;49.662;8.448;2023-01-28T10:41:51;101880.94;;;4.18;100.00
37238;BME280;23129;49.662;8.448;2023-01-28T10:44:33;101878.34;;;4.18;100.00
37238;BME280;23129;49.662;8.448;2023-01-28T10:47:11;101884.44;;;4.20;100.00
37238;BME280;23129;49.662;8.448;2023-01-28T10:49:45;101886.13;;;4.18;100.00
37238;BME280;23129;49.662;8.448;2023-01-28T10:52:15;101882.63;;;4.16;100.00
37238;BME280;23129;49.662;8.448;2023-01-28T10:54:44;101886.94;;;4.15;100.00
37238;BME280;23129;49.662;8.448;2023-01-28T10:57:16;101883.50;;;4.16;100.00
37238;BME280;23129;49.662;8.448;2023-01-28T10:59:47;101881.00;;;4.21;100.00
37238;BME280;23129;49.662;8.448;2023-01-28T11:02:27;101886.19;;;4.21;100.00
37238;BME280;23129;49.662;8.448;2023-01-28T11:05:05;101882.84;;;4.25;100.00
37238;BME280;23129;49.662;8.448;2023-01-28T11:07:34;101883.84;;;4.31;100.00
37238;BME280;23129;49.662;8.448;2023-01-28T11:10:24;101891.78;;;4.39;100.00
37238;BME280;23129;49.662;8.448;2023-01-28T11:12:57;101879.75;;;4.44;100.00
37238;BME280;23129;49.662;8.448;2023-01-28T11:15:28;101885.09;;;4.50;100.00
37238;BME280;23129;49.662;8.448;2023-01-28T11:17:59;101891.19;;;4.52;100.00
37238;BME280;23129;49.662;8.448;2023-01-28T11:20:36;101886.88;;;4.54;100.00
37238;BME280;23129;49.662;8.448;2023-01-28T11:23:06;101884.34;;;4.56;100.00
37238;BME280;23129;49.662;8.448;2023-01-28T11:25:45;101886.94;;;4.57;100.00
37238;BME280;23129;49.662;8.448;2023-01-28T11:28:25;101888.66;;;4.55;100.00
37238;BME280;23129;49.662;8.448;2023-01-28T11:30:56;101880.88;;;4.57;100.00
37238;BME280;23129;49.662;8.448;2023-01-28T11:33:32;101880.94;;;4.60;100.00
37238;BME280;23129;49.662;8.448;2023-01-28T11:36:07;101880.13;;;4.63;100.00
37238;BME280;23129;49.662;8.448;2023-01-28T11:38:50;101875.06;;;4.69;100.00
37238;BME280;23129;49.662;8.448;2023-01-28T11:41:27;101877.75;;;4.73;100.00
37238;BME280;23129;49.662;8.448;2023-01-28T11:43:58;101875.22;;;4.76;100.00
37238;BME280;23129;49.662;8.448;2023-01-28T11:47:05;101872.69;;;4.81;100.00
37238;BME280;23129;49.662;8.448;2023-01-28T11:49:49;101868.44;;;4.86;100.00
37238;BME280;23129;49.662;8.448;2023-01-28T11:52:31;101867.69;;;4.92;100.00
37238;BME280;23129;49.662;8.448;2023-01-28T11:55:39;101864.28;;;4.96;100.00
37238;BME280;23129;49.662;8.448;2023-01-28T11:58:20;101872.13;;;4.97;100.00
37238;BME280;23129;49.662;8.448;2023-01-28T12:01:00;101867.03;;;5.03;100.00
37238;BME280;23129;49.662;8.448;2023-01-28T12:04:11;101868.81;;;5.06;100.00
37238;BME280;23129;49.662;8.448;2023-01-28T12:07:00;101855.84;;;5.08;100.00
37238;BME280;23129;49.662;8.448;2023-01-28T12:09:37;101856.81;;;5.13;100.00
37238;BME280;23129;49.662;8.448;2023-01-28T12:19:06;101848.28;;;5.23;100.00
37238;BME280;23129;49.662;8.448;2023-01-28T12:22:08;101856.09;;;5.21;100.00
37238;BME280;23129;49.662;8.448;2023-01-28T12:24:53;101850.84;;;5.18;100.00
37238;BME280;23129;49.662;8.448;2023-01-28T12:27:36;101855.06;;;5.13;100.00
37238;BME280;23129;49.662;8.448;2023-01-28T12:30:26;101846.34;;;5.10;100.00
37238;BME280;23129;49.662;8.448;2023-01-28T12:33:29;101844.47;;;5.02;100.00
37238;BME280;23129;49.662;8.448;2023-01-28T12:36:15;101843.53;;;4.99;100.00
37238;BME280;23129;49.662;8.448;2023-01-28T12:39:00;101846.09;;;4.94;100.00
37238;BME280;23129;49.662;8.448;2023-01-28T12:41:35;101840.81;;;4.91;100.00
37238;BME280;23129;49.662;8.448;2023-01-28T12:44:11;101841.63;;;4.89;100.00
37238;BME280;23129;49.662;8.448;2023-01-28T12:46:45;101843.38;;;4.88;100.00
37238;BME280;23129;49.662;8.448;2023-01-28T12:49:17;101838.13;;;4.85;100.00
37238;BME280;23129;49.662;8.448;2023-01-28T12:52:00;101841.41;;;4.76;100.00
37238;BME280;23129;49.662;8.448;2023-01-28T12:54:35;101838.78;;;4.75;100.00
37238;BME280;23129;49.662;8.448;2023-01-28T12:57:09;101844.78;;;4.71;100.00
37238;BME280;23129;49.662;8.448;2023-01-28T12:59:46;101838.59;;;4.66;100.00
37238;BME280;23129;49.662;8.448;2023-01-28T13:02:24;101836.00;;;4.64;100.00
37238;BME280;23129;49.662;8.448;2023-01-28T13:04:59;101838.47;;;4.58;100.00
37238;BME280;23129;49.662;8.448;2023-01-28T13:07:37;101843.56;;;4.53;100.00
37238;BME280;23129;49.662;8.448;2023-01-28T13:10:18;101845.19;;;4.48;100.00
37238;BME280;23129;49.662;8.448;2023-01-28T13:12:49;101843.47;;;4.47;100.00
37238;BME280;23129;49.662;8.448;2023-01-28T13:15:19;101846.84;;;4.43;100.00
37238;BME280;23129;49.662;8.448;2023-01-28T13:17:56;101838.06;;;4.38;100.00
37238;BME280;23129;49.662;8.448;2023-01-28T13:20:37;101846.69;;;4.35;100.00
37238;BME280;23129;49.662;8.448;2023-01-28T13:23:23;101841.47;;;4.34;100.00
37238;BME280;23129;49.662;8.448;2023-01-28T13:25:53;101844.88;;;4.33;100.00
37238;BME280;23129;49.662;8.448;2023-01-28T13:28:28;101852.66;;;4.31;100.00
37238;BME280;23129;49.662;8.448;2023-01-28T13:31:05;101855.22;;;4.30;100.00
37238;BME280;23129;49.662;8.448;2023-01-28T13:33:36;101852.53;;;4.25;100.00
37238;BME280;23129;49.662;8.448;2023-01-28T13:36:20;101861.97;;;4.22;100.00
37238;BME280;23129;49.662;8.448;2023-01-28T13:39:01;101867.09;;;4.19;100.00
37238;BME280;23129;49.662;8.448;2023-01-28T13:41:39;101864.47;;;4.17;100.00